sensor_id;sensor_type;location;lat;lon;timestamp;P1;durP1;ratioP1;P2;durP2;ratioP2
39266;SDS011;24967;51.154;13.812;2022-09-09T00:00:18;2.53;;;1.80;;
39266;SDS011;24967;51.154;13.812;2022-09-09T00:02:49;6.13;;;2.13;;
39266;SDS011;24967;51.154;13.812;2022-09-09T00:05:27;2.08;;;1.42;;
39266;SDS011;24967;51.154;13.812;2022-09-09T00:07:59;2.08;;;1.80;;
39266;SDS011;24967;51.154;13.812;2022-09-09T00:10:29;1.70;;;1.60;;
39266;SDS011;24967;51.154;13.812;2022-09-09T00:13:00;2.80;;;1.65;;
39266;SDS011;24967;51.154;13.812;2022-09-09T00:15:34;1.85;;;1.75;;
39266;SDS011;24967;51.154;13.812;2022-09-09T00:18:11;2.28;;;1.50;;
39266;SDS011;24967;51.154;13.812;2022-09-09T00:20:45;2.92;;;1.27;;
39266;SDS011;24967;51.154;13.812;2022-09-09T00:23:19;1.90;;;1.40;;
39266;SDS011;24967;51.154;13.812;2022-09-09T00:25:53;1.42;;;1.40;;
39266;SDS011;24967;51.154;13.812;2022-09-09T00:28:28;2.50;;;1.60;;
39266;SDS011;24967;51.154;13.812;2022-09-09T00:30:59;1.45;;;1.35;;
39266;SDS011;24967;51.154;13.812;2022-09-09T00:33:37;2.20;;;1.35;;
39266;SDS011;24967;51.154;13.812;2022-09-09T00:36:07;3.20;;;1.58;;
39266;SDS011;24967;51.154;13.812;2022-09-09T00:38:39;2.22;;;1.50;;
39266;SDS011;24967;51.154;13.812;2022-09-09T00:41:11;1.85;;;1.48;;
39266;SDS011;24967;51.154;13.812;2022-09-09T00:43:45;6.18;;;1.38;;
39266;SDS011;24967;51.154;13.812;2022-09-09T00:46:32;1.25;;;1.25;;
39266;SDS011;24967;51.154;13.812;2022-09-09T00:49:15;2.70;;;1.20;;
39266;SDS011;24967;51.154;13.812;2022-09-09T00:51:51;4.10;;;1.23;;
39266;SDS011;24967;51.154;13.812;2022-09-09T00:54:28;1.80;;;1.70;;
39266;SDS011;24967;51.154;13.812;2022-09-09T00:57:10;1.33;;;1.25;;
39266;SDS011;24967;51.154;13.812;2022-09-09T00:59:46;3.72;;;1.60;;
39266;SDS011;24967;51.154;13.812;2022-09-09T01:02:18;2.97;;;0.93;;
39266;SDS011;24967;51.154;13.812;2022-09-09T01:04:54;2.33;;;1.23;;
39266;SDS011;24967;51.154;13.812;2022-09-09T01:07:26;2.80;;;1.30;;
39266;SDS011;24967;51.154;13.812;2022-09-09T01:09:54;3.17;;;1.42;;
39266;SDS011;24967;51.154;13.812;2022-09-09T01:12:28;1.75;;;1.30;;
39266;SDS011;24967;51.154;13.812;2022-09-09T01:15:04;1.30;;;1.20;;
39266;SDS011;24967;51.154;13.812;2022-09-09T01:17:39;1.50;;;1.40;;
39266;SDS011;24967;51.154;13.812;2022-09-09T01:20:17;2.78;;;1.23;;
39266;SDS011;24967;51.154;13.812;2022-09-09T01:22:53;1.45;;;1.20;;
39266;SDS011;24967;51.154;13.812;2022-09-09T01:28:35;1.70;;;1.40;;
39266;SDS011;24967;51.154;13.812;2022-09-09T01:31:03;2.55;;;1.40;;
39266;SDS011;24967;51.154;13.812;2022-09-09T01:33:32;4.05;;;1.33;;
39266;SDS011;24967;51.154;13.812;2022-09-09T01:35:59;2.50;;;1.40;;
39266;SDS011;24967;51.154;13.812;2022-09-09T01:38:31;1.73;;;1.25;;
39266;SDS011;24967;51.154;13.812;2022-09-09T01:41:00;3.00;;;1.50;;
39266;SDS011;24967;51.154;13.812;2022-09-09T01:43:29;2.40;;;1.20;;
39266;SDS011;24967;51.154;13.812;2022-09-09T01:45:58;3.10;;;1.35;;
39266;SDS011;24967;51.154;13.812;2022-09-09T01:48:27;2.95;;;1.50;;
39266;SDS011;24967;51.154;13.812;2022-09-09T01:50:54;4.03;;;1.40;;
39266;SDS011;24967;51.154;13.812;2022-09-09T01:53:21;2.53;;;1.85;;
39266;SDS011;24967;51.154;13.812;2022-09-09T01:55:51;3.70;;;1.30;;
39266;SDS011;24967;51.154;13.812;2022-09-09T01:58:26;6.32;;;1.58;;
39266;SDS011;24967;51.154;13.812;2022-09-09T02:01:06;3.13;;;1.77;;
39266;SDS011;24967;51.154;13.812;2022-09-09T02:03:39;1.38;;;1.27;;
39266;SDS011;24967;51.154;13.812;2022-09-09T02:06:13;1.40;;;1.30;;
39266;SDS011;24967;51.154;13.812;2022-09-09T02:08:50;2.20;;;1.73;;
39266;SDS011;24967;51.154;13.812;2022-09-09T02:11:21;1.65;;;1.20;;
39266;SDS011;24967;51.154;13.812;2022-09-09T02:13:52;4.28;;;1.60;;
39266;SDS011;24967;51.154;13.812;2022-09-09T02:16:23;2.50;;;1.25;;
39266;SDS011;24967;51.154;13.812;2022-09-09T02:18:53;2.97;;;1.30;;
39266;SDS011;24967;51.154;13.812;2022-09-09T02:21:24;1.25;;;1.13;;
39266;SDS011;24967;51.154;13.812;2022-09-09T02:23:54;1.58;;;1.45;;
39266;SDS011;24967;51.154;13.812;2022-09-09T02:28:55;4.03;;;1.27;;
39266;SDS011;24967;51.154;13.812;2022-09-09T02:31:24;3.88;;;1.63;;
39266;SDS011;24967;51.154;13.812;2022-09-09T02:33:52;1.90;;;1.40;;
39266;SDS011;24967;51.154;13.812;2022-09-09T02:36:24;3.00;;;1.55;;
39266;SDS011;24967;51.154;13.812;2022-09-09T02:38:55;3.05;;;1.60;;
39266;SDS011;24967;51.154;13.812;2022-09-09T02:41:24;2.65;;;1.35;;
39266;SDS011;24967;51.154;13.812;2022-09-09T02:43:58;2.85;;;1.58;;
39266;SDS011;24967;51.154;13.812;2022-09-09T02:46:27;3.53;;;1.80;;
39266;SDS011;24967;51.154;13.812;2022-09-09T02:49:06;1.50;;;1.30;;
39266;SDS011;24967;51.154;13.812;2022-09-09T02:51:38;2.20;;;1.55;;
39266;SDS011;24967;51.154;13.812;2022-09-09T02:54:14;2.97;;;1.42;;
39266;SDS011;24967;51.154;13.812;2022-09-09T02:56:47;2.00;;;1.30;;
39266;SDS011;24967;51.154;13.812;2022-09-09T02:59:20;1.95;;;1.13;;
39266;SDS011;24967;51.154;13.812;2022-09-09T03:01:47;2.08;;;1.40;;
39266;SDS011;24967;51.154;13.812;2022-09-09T03:04:14;2.03;;;1.25;;
39266;SDS011;24967;51.154;13.812;2022-09-09T03:06:41;3.53;;;1.23;;
39266;SDS011;24967;51.154;13.812;2022-09-09T03:09:08;1.98;;;1.10;;
39266;SDS011;24967;51.154;13.812;2022-09-09T03:11:35;3.45;;;1.20;;
39266;SDS011;24967;51.154;13.812;2022-09-09T03:14:03;2.05;;;1.20;;
39266;SDS011;24967;51.154;13.812;2022-09-09T03:16:31;2.63;;;1.13;;
39266;SDS011;24967;51.154;13.812;2022-09-09T03:18:59;2.25;;;1.30;;
39266;SDS011;24967;51.154;13.812;2022-09-09T03:21:26;3.67;;;1.30;;
39266;SDS011;24967;51.154;13.812;2022-09-09T03:23:52;5.85;;;1.20;;
39266;SDS011;24967;51.154;13.812;2022-09-09T03:26:19;4.22;;;1.30;;
39266;SDS011;24967;51.154;13.812;2022-09-09T03:28:46;2.50;;;1.25;;
39266;SDS011;24967;51.154;13.812;2022-09-09T03:31:12;5.78;;;1.25;;
39266;SDS011;24967;51.154;13.812;2022-09-09T03:33:40;3.28;;;1.58;;
39266;SDS011;24967;51.154;13.812;2022-09-09T03:36:07;5.43;;;1.40;;
39266;SDS011;24967;51.154;13.812;2022-09-09T03:38:35;4.78;;;1.42;;
39266;SDS011;24967;51.154;13.812;2022-09-09T03:41:02;3.78;;;1.35;;
39266;SDS011;24967;51.154;13.812;2022-09-09T03:43:31;1.27;;;1.00;;
39266;SDS011;24967;51.154;13.812;2022-09-09T03:45:58;3.35;;;1.17;;
39266;SDS011;24967;51.154;13.812;2022-09-09T03:48:25;1.23;;;1.13;;
39266;SDS011;24967;51.154;13.812;2022-09-09T03:50:54;3.97;;;1.20;;
39266;SDS011;24967;51.154;13.812;2022-09-09T03:53:23;2.60;;;1.00;;
39266;SDS011;24967;51.154;13.812;2022-09-09T03:55:51;1.63;;;1.20;;
39266;SDS011;24967;51.154;13.812;2022-09-09T03:58:19;3.08;;;1.20;;
39266;SDS011;24967;51.154;13.812;2022-09-09T04:00:52;3.42;;;1.25;;
39266;SDS011;24967;51.154;13.812;2022-09-09T04:03:20;2.83;;;1.05;;
39266;SDS011;24967;51.154;13.812;2022-09-09T04:05:48;1.83;;;1.20;;
39266;SDS011;24967;51.154;13.812;2022-09-09T04:08:16;3.72;;;1.58;;
39266;SDS011;24967;51.154;13.812;2022-09-09T04:10:44;2.78;;;1.08;;
39266;SDS011;24967;51.154;13.812;2022-09-09T04:13:10;1.95;;;1.10;;
39266;SDS011;24967;51.154;13.812;2022-09-09T04:15:39;2.45;;;1.27;;
39266;SDS011;24967;51.154;13.812;2022-09-09T04:18:05;2.15;;;1.10;;
39266;SDS011;24967;51.154;13.812;2022-09-09T04:20:32;1.98;;;1.10;;
39266;SDS011;24967;51.154;13.812;2022-09-09T04:22:58;3.40;;;1.73;;
39266;SDS011;24967;51.154;13.812;2022-09-09T04:25:26;1.13;;;1.02;;
39266;SDS011;24967;51.154;13.812;2022-09-09T04:27:53;7.50;;;1.10;;
39266;SDS011;24967;51.154;13.812;2022-09-09T04:30:20;1.60;;;1.10;;
39266;SDS011;24967;51.154;13.812;2022-09-09T04:32:47;1.75;;;1.10;;
39266;SDS011;24967;51.154;13.812;2022-09-09T04:35:13;2.60;;;1.20;;
39266;SDS011;24967;51.154;13.812;2022-09-09T04:37:40;1.75;;;1.55;;
39266;SDS011;24967;51.154;13.812;2022-09-09T04:40:08;1.70;;;1.40;;
39266;SDS011;24967;51.154;13.812;2022-09-09T04:42:36;1.85;;;1.48;;
39266;SDS011;24967;51.154;13.812;2022-09-09T04:45:03;3.97;;;1.30;;
39266;SDS011;24967;51.154;13.812;2022-09-09T04:47:31;1.40;;;1.10;;
39266;SDS011;24967;51.154;13.812;2022-09-09T04:49:59;9.52;;;1.38;;
39266;SDS011;24967;51.154;13.812;2022-09-09T04:52:25;5.78;;;1.50;;
39266;SDS011;24967;51.154;13.812;2022-09-09T04:54:52;2.08;;;1.33;;
39266;SDS011;24967;51.154;13.812;2022-09-09T04:57:19;1.45;;;1.35;;
39266;SDS011;24967;51.154;13.812;2022-09-09T04:59:47;3.65;;;1.30;;
39266;SDS011;24967;51.154;13.812;2022-09-09T05:02:14;2.22;;;1.70;;
39266;SDS011;24967;51.154;13.812;2022-09-09T05:04:40;2.75;;;1.60;;
39266;SDS011;24967;51.154;13.812;2022-09-09T05:07:06;3.20;;;1.70;;
39266;SDS011;24967;51.154;13.812;2022-09-09T05:09:33;2.55;;;1.50;;
39266;SDS011;24967;51.154;13.812;2022-09-09T05:11:59;3.38;;;1.70;;
39266;SDS011;24967;51.154;13.812;2022-09-09T05:14:27;2.80;;;1.60;;
39266;SDS011;24967;51.154;13.812;2022-09-09T05:16:55;3.30;;;1.50;;
39266;SDS011;24967;51.154;13.812;2022-09-09T05:19:23;2.50;;;1.20;;
39266;SDS011;24967;51.154;13.812;2022-09-09T05:21:49;2.42;;;1.40;;
39266;SDS011;24967;51.154;13.812;2022-09-09T05:24:16;2.55;;;1.50;;
39266;SDS011;24967;51.154;13.812;2022-09-09T05:26:43;2.88;;;1.67;;
39266;SDS011;24967;51.154;13.812;2022-09-09T05:29:09;2.33;;;1.50;;
39266;SDS011;24967;51.154;13.812;2022-09-09T05:31:36;5.35;;;1.58;;
39266;SDS011;24967;51.154;13.812;2022-09-09T05:34:05;1.92;;;1.20;;
39266;SDS011;24967;51.154;13.812;2022-09-09T05:36:31;2.25;;;1.42;;
39266;SDS011;24967;51.154;13.812;2022-09-09T05:38:58;4.53;;;1.20;;
39266;SDS011;24967;51.154;13.812;2022-09-09T05:41:24;5.35;;;1.25;;
39266;SDS011;24967;51.154;13.812;2022-09-09T05:43:51;3.17;;;1.30;;
39266;SDS011;24967;51.154;13.812;2022-09-09T05:46:18;1.33;;;1.30;;
39266;SDS011;24967;51.154;13.812;2022-09-09T05:48:46;1.45;;;1.02;;
39266;SDS011;24967;51.154;13.812;2022-09-09T05:51:17;3.88;;;1.02;;
39266;SDS011;24967;51.154;13.812;2022-09-09T05:53:46;1.42;;;1.30;;
39266;SDS011;24967;51.154;13.812;2022-09-09T05:56:14;2.85;;;1.20;;
39266;SDS011;24967;51.154;13.812;2022-09-09T05:58:42;1.20;;;1.10;;
39266;SDS011;24967;51.154;13.812;2022-09-09T06:01:10;2.45;;;1.30;;
39266;SDS011;24967;51.154;13.812;2022-09-09T06:03:38;2.05;;;1.30;;
39266;SDS011;24967;51.154;13.812;2022-09-09T06:06:07;2.17;;;1.30;;
39266;SDS011;24967;51.154;13.812;2022-09-09T06:08:37;1.50;;;1.25;;
39266;SDS011;24967;51.154;13.812;2022-09-09T06:11:05;2.05;;;1.10;;
39266;SDS011;24967;51.154;13.812;2022-09-09T06:13:33;3.92;;;1.20;;
39266;SDS011;24967;51.154;13.812;2022-09-09T06:16:00;2.38;;;1.02;;
39266;SDS011;24967;51.154;13.812;2022-09-09T06:18:27;4.57;;;1.50;;
39266;SDS011;24967;51.154;13.812;2022-09-09T06:20:55;2.53;;;1.17;;
39266;SDS011;24967;51.154;13.812;2022-09-09T06:23:23;1.83;;;1.30;;
39266;SDS011;24967;51.154;13.812;2022-09-09T06:25:51;2.80;;;1.05;;
39266;SDS011;24967;51.154;13.812;2022-09-09T06:28:26;1.40;;;1.13;;
39266;SDS011;24967;51.154;13.812;2022-09-09T06:30:56;2.15;;;0.88;;
39266;SDS011;24967;51.154;13.812;2022-09-09T06:33:23;4.18;;;1.30;;
39266;SDS011;24967;51.154;13.812;2022-09-09T06:35:51;2.58;;;1.10;;
39266;SDS011;24967;51.154;13.812;2022-09-09T06:38:18;1.30;;;0.80;;
39266;SDS011;24967;51.154;13.812;2022-09-09T06:40:51;1.45;;;0.90;;
39266;SDS011;24967;51.154;13.812;2022-09-09T06:43:19;2.25;;;0.90;;
39266;SDS011;24967;51.154;13.812;2022-09-09T06:45:52;2.15;;;0.82;;
39266;SDS011;24967;51.154;13.812;2022-09-09T06:48:19;2.88;;;0.60;;
39266;SDS011;24967;51.154;13.812;2022-09-09T06:50:45;3.83;;;1.05;;
39266;SDS011;24967;51.154;13.812;2022-09-09T06:53:12;1.20;;;0.85;;
39266;SDS011;24967;51.154;13.812;2022-09-09T06:55:44;1.98;;;0.77;;
39266;SDS011;24967;51.154;13.812;2022-09-09T06:58:12;0.73;;;0.70;;
39266;SDS011;24967;51.154;13.812;2022-09-09T07:00:38;2.08;;;0.73;;
39266;SDS011;24967;51.154;13.812;2022-09-09T07:03:05;1.60;;;0.70;;
39266;SDS011;24967;51.154;13.812;2022-09-09T07:05:31;2.08;;;0.70;;
39266;SDS011;24967;51.154;13.812;2022-09-09T07:07:58;4.82;;;0.82;;
39266;SDS011;24967;51.154;13.812;2022-09-09T07:10:24;2.35;;;0.70;;
39266;SDS011;24967;51.154;13.812;2022-09-09T07:12:51;1.90;;;0.57;;
39266;SDS011;24967;51.154;13.812;2022-09-09T07:15:19;2.53;;;0.63;;
39266;SDS011;24967;51.154;13.812;2022-09-09T07:17:47;3.17;;;0.88;;
39266;SDS011;24967;51.154;13.812;2022-09-09T07:20:14;4.63;;;0.80;;
39266;SDS011;24967;51.154;13.812;2022-09-09T07:22:41;2.13;;;0.50;;
39266;SDS011;24967;51.154;13.812;2022-09-09T07:25:08;1.60;;;0.75;;
39266;SDS011;24967;51.154;13.812;2022-09-09T07:27:34;2.50;;;0.70;;
39266;SDS011;24967;51.154;13.812;2022-09-09T07:30:01;2.40;;;0.57;;
39266;SDS011;24967;51.154;13.812;2022-09-09T07:32:30;0.70;;;0.40;;
39266;SDS011;24967;51.154;13.812;2022-09-09T07:34:56;2.50;;;0.63;;
39266;SDS011;24967;51.154;13.812;2022-09-09T07:37:23;2.70;;;0.70;;
39266;SDS011;24967;51.154;13.812;2022-09-09T07:39:50;1.95;;;0.95;;
39266;SDS011;24967;51.154;13.812;2022-09-09T07:42:17;2.35;;;0.65;;
39266;SDS011;24967;51.154;13.812;2022-09-09T07:44:44;1.52;;;0.50;;
39266;SDS011;24967;51.154;13.812;2022-09-09T07:47:10;1.67;;;0.68;;
39266;SDS011;24967;51.154;13.812;2022-09-09T07:49:38;0.68;;;0.60;;
39266;SDS011;24967;51.154;13.812;2022-09-09T07:52:05;2.83;;;0.60;;
39266;SDS011;24967;51.154;13.812;2022-09-09T07:54:32;3.75;;;0.95;;
39266;SDS011;24967;51.154;13.812;2022-09-09T07:56:58;2.65;;;0.80;;
39266;SDS011;24967;51.154;13.812;2022-09-09T07:59:25;1.45;;;0.60;;
39266;SDS011;24967;51.154;13.812;2022-09-09T08:01:53;1.92;;;0.57;;
39266;SDS011;24967;51.154;13.812;2022-09-09T08:04:19;2.38;;;0.65;;
39266;SDS011;24967;51.154;13.812;2022-09-09T08:06:49;4.05;;;0.88;;
39266;SDS011;24967;51.154;13.812;2022-09-09T08:09:17;3.17;;;1.05;;
39266;SDS011;24967;51.154;13.812;2022-09-09T08:11:45;2.42;;;0.80;;
39266;SDS011;24967;51.154;13.812;2022-09-09T08:14:13;1.25;;;0.63;;
39266;SDS011;24967;51.154;13.812;2022-09-09T08:16:40;1.27;;;0.70;;
39266;SDS011;24967;51.154;13.812;2022-09-09T08:19:09;1.25;;;0.68;;
39266;SDS011;24967;51.154;13.812;2022-09-09T08:21:36;2.13;;;0.75;;
39266;SDS011;24967;51.154;13.812;2022-09-09T08:24:07;3.70;;;0.70;;
39266;SDS011;24967;51.154;13.812;2022-09-09T08:26:36;3.47;;;1.23;;
39266;SDS011;24967;51.154;13.812;2022-09-09T08:29:05;0.77;;;0.70;;
39266;SDS011;24967;51.154;13.812;2022-09-09T08:31:33;1.40;;;0.60;;
39266;SDS011;24967;51.154;13.812;2022-09-09T08:34:02;2.63;;;0.50;;
39266;SDS011;24967;51.154;13.812;2022-09-09T08:36:30;2.45;;;0.60;;
39266;SDS011;24967;51.154;13.812;2022-09-09T08:38:59;2.45;;;0.70;;
39266;SDS011;24967;51.154;13.812;2022-09-09T08:41:34;4.28;;;0.80;;
39266;SDS011;24967;51.154;13.812;2022-09-09T08:44:22;4.30;;;0.77;;
39266;SDS011;24967;51.154;13.812;2022-09-09T08:46:59;1.27;;;0.63;;
39266;SDS011;24967;51.154;13.812;2022-09-09T08:49:41;2.45;;;0.85;;
39266;SDS011;24967;51.154;13.812;2022-09-09T08:52:22;1.10;;;0.70;;
39266;SDS011;24967;51.154;13.812;2022-09-09T08:54:53;3.53;;;0.85;;
39266;SDS011;24967;51.154;13.812;2022-09-09T08:57:25;1.58;;;0.85;;
39266;SDS011;24967;51.154;13.812;2022-09-09T09:02:23;2.25;;;0.90;;
39266;SDS011;24967;51.154;13.812;2022-09-09T09:04:56;2.33;;;1.05;;
39266;SDS011;24967;51.154;13.812;2022-09-09T09:07:35;2.70;;;1.02;;
39266;SDS011;24967;51.154;13.812;2022-09-09T09:10:16;6.25;;;1.20;;
39266;SDS011;24967;51.154;13.812;2022-09-09T09:12:57;2.58;;;0.95;;
39266;SDS011;24967;51.154;13.812;2022-09-09T09:15:26;0.90;;;0.63;;
39266;SDS011;24967;51.154;13.812;2022-09-09T09:17:57;2.85;;;1.20;;
39266;SDS011;24967;51.154;13.812;2022-09-09T09:20:25;4.35;;;1.10;;
39266;SDS011;24967;51.154;13.812;2022-09-09T09:23:01;3.00;;;1.05;;
39266;SDS011;24967;51.154;13.812;2022-09-09T09:25:31;3.17;;;0.90;;
39266;SDS011;24967;51.154;13.812;2022-09-09T09:28:03;1.70;;;0.80;;
39266;SDS011;24967;51.154;13.812;2022-09-09T09:30:42;2.15;;;1.42;;
39266;SDS011;24967;51.154;13.812;2022-09-09T09:33:17;0.80;;;0.80;;
39266;SDS011;24967;51.154;13.812;2022-09-09T09:35:49;2.92;;;0.80;;
39266;SDS011;24967;51.154;13.812;2022-09-09T09:38:17;2.35;;;0.80;;
39266;SDS011;24967;51.154;13.812;2022-09-09T09:40:48;2.28;;;1.10;;
39266;SDS011;24967;51.154;13.812;2022-09-09T09:43:24;3.42;;;1.00;;
39266;SDS011;24967;51.154;13.812;2022-09-09T09:45:52;1.60;;;1.10;;
39266;SDS011;24967;51.154;13.812;2022-09-09T09:48:19;3.30;;;1.10;;
39266;SDS011;24967;51.154;13.812;2022-09-09T09:50:49;2.15;;;0.93;;
39266;SDS011;24967;51.154;13.812;2022-09-09T09:53:19;2.55;;;1.20;;
39266;SDS011;24967;51.154;13.812;2022-09-09T09:55:50;2.33;;;1.10;;
39266;SDS011;24967;51.154;13.812;2022-09-09T09:58:20;1.98;;;0.93;;
39266;SDS011;24967;51.154;13.812;2022-09-09T10:00:49;2.22;;;0.95;;
39266;SDS011;24967;51.154;13.812;2022-09-09T10:03:21;2.63;;;1.20;;
39266;SDS011;24967;51.154;13.812;2022-09-09T10:05:52;1.33;;;1.17;;
39266;SDS011;24967;51.154;13.812;2022-09-09T10:08:21;2.15;;;0.90;;
39266;SDS011;24967;51.154;13.812;2022-09-09T10:10:54;2.50;;;1.02;;
39266;SDS011;24967;51.154;13.812;2022-09-09T10:13:34;4.70;;;1.27;;
39266;SDS011;24967;51.154;13.812;2022-09-09T10:16:13;4.32;;;1.27;;
39266;SDS011;24967;51.154;13.812;2022-09-09T10:18:55;4.28;;;0.88;;
39266;SDS011;24967;51.154;13.812;2022-09-09T10:21:30;2.88;;;0.98;;
39266;SDS011;24967;51.154;13.812;2022-09-09T10:24:13;2.53;;;0.98;;
39266;SDS011;24967;51.154;13.812;2022-09-09T10:26:53;1.10;;;0.90;;
39266;SDS011;24967;51.154;13.812;2022-09-09T10:29:44;0.90;;;0.80;;
39266;SDS011;24967;51.154;13.812;2022-09-09T10:32:36;3.45;;;0.85;;
39266;SDS011;24967;51.154;13.812;2022-09-09T10:35:10;2.95;;;0.88;;
39266;SDS011;24967;51.154;13.812;2022-09-09T10:37:47;2.58;;;0.60;;
39266;SDS011;24967;51.154;13.812;2022-09-09T10:40:39;0.70;;;0.70;;
39266;SDS011;24967;51.154;13.812;2022-09-09T10:43:13;2.97;;;0.68;;
39266;SDS011;24967;51.154;13.812;2022-09-09T10:45:57;3.47;;;0.77;;
39266;SDS011;24967;51.154;13.812;2022-09-09T10:48:36;2.15;;;1.00;;
39266;SDS011;24967;51.154;13.812;2022-09-09T10:51:21;3.75;;;0.70;;
39266;SDS011;24967;51.154;13.812;2022-09-09T10:53:53;1.58;;;1.02;;
39266;SDS011;24967;51.154;13.812;2022-09-09T10:56:32;3.10;;;0.60;;
39266;SDS011;24967;51.154;13.812;2022-09-09T10:59:02;3.53;;;0.80;;
39266;SDS011;24967;51.154;13.812;2022-09-09T11:01:36;2.42;;;0.73;;
39266;SDS011;24967;51.154;13.812;2022-09-09T11:04:10;1.58;;;0.60;;
39266;SDS011;24967;51.154;13.812;2022-09-09T11:06:43;0.52;;;0.52;;
39266;SDS011;24967;51.154;13.812;2022-09-09T11:09:18;1.95;;;0.80;;
39266;SDS011;24967;51.154;13.812;2022-09-09T11:11:49;2.78;;;0.70;;
39266;SDS011;24967;51.154;13.812;2022-09-09T11:14:19;2.05;;;0.60;;
39266;SDS011;24967;51.154;13.812;2022-09-09T11:16:53;1.95;;;0.85;;
39266;SDS011;24967;51.154;13.812;2022-09-09T11:19:24;1.17;;;0.73;;
39266;SDS011;24967;51.154;13.812;2022-09-09T11:21:56;1.92;;;0.73;;
39266;SDS011;24967;51.154;13.812;2022-09-09T11:24:26;2.67;;;0.60;;
39266;SDS011;24967;51.154;13.812;2022-09-09T11:27:00;1.80;;;0.77;;
39266;SDS011;24967;51.154;13.812;2022-09-09T11:29:35;2.25;;;0.82;;
39266;SDS011;24967;51.154;13.812;2022-09-09T11:32:38;1.35;;;0.77;;
39266;SDS011;24967;51.154;13.812;2022-09-09T11:35:24;1.05;;;0.55;;
39266;SDS011;24967;51.154;13.812;2022-09-09T11:38:04;2.53;;;0.90;;
39266;SDS011;24967;51.154;13.812;2022-09-09T11:40:43;3.30;;;1.05;;
39266;SDS011;24967;51.154;13.812;2022-09-09T11:43:10;2.97;;;1.00;;
39266;SDS011;24967;51.154;13.812;2022-09-09T11:45:40;1.30;;;0.80;;
39266;SDS011;24967;51.154;13.812;2022-09-09T11:48:22;3.55;;;1.23;;
39266;SDS011;24967;51.154;13.812;2022-09-09T11:50:57;3.88;;;1.40;;
39266;SDS011;24967;51.154;13.812;2022-09-09T11:53:25;4.80;;;1.70;;
39266;SDS011;24967;51.154;13.812;2022-09-09T11:56:09;5.22;;;1.83;;
39266;SDS011;24967;51.154;13.812;2022-09-09T11:58:53;4.95;;;1.80;;
39266;SDS011;24967;51.154;13.812;2022-09-09T12:01:29;5.88;;;1.52;;
39266;SDS011;24967;51.154;13.812;2022-09-09T12:06:49;6.00;;;1.75;;
39266;SDS011;24967;51.154;13.812;2022-09-09T12:09:19;1.95;;;1.40;;
39266;SDS011;24967;51.154;13.812;2022-09-09T12:11:52;2.88;;;1.25;;
39266;SDS011;24967;51.154;13.812;2022-09-09T12:14:34;3.97;;;1.25;;
39266;SDS011;24967;51.154;13.812;2022-09-09T12:17:10;2.58;;;1.30;;
39266;SDS011;24967;51.154;13.812;2022-09-09T12:19:47;4.57;;;1.27;;
39266;SDS011;24967;51.154;13.812;2022-09-09T12:22:16;3.53;;;1.88;;
39266;SDS011;24967;51.154;13.812;2022-09-09T12:24:53;3.15;;;0.90;;
39266;SDS011;24967;51.154;13.812;2022-09-09T12:27:27;1.30;;;1.10;;
39266;SDS011;24967;51.154;13.812;2022-09-09T12:30:01;2.45;;;1.08;;
39266;SDS011;24967;51.154;13.812;2022-09-09T12:32:31;2.83;;;1.00;;
39266;SDS011;24967;51.154;13.812;2022-09-09T12:34:59;2.38;;;1.13;;
39266;SDS011;24967;51.154;13.812;2022-09-09T12:37:31;4.53;;;1.00;;
39266;SDS011;24967;51.154;13.812;2022-09-09T12:40:02;2.53;;;0.95;;
39266;SDS011;24967;51.154;13.812;2022-09-09T12:42:30;1.15;;;1.00;;
39266;SDS011;24967;51.154;13.812;2022-09-09T12:44:58;2.75;;;1.27;;
39266;SDS011;24967;51.154;13.812;2022-09-09T12:47:28;3.35;;;0.93;;
39266;SDS011;24967;51.154;13.812;2022-09-09T12:50:04;0.90;;;0.90;;
39266;SDS011;24967;51.154;13.812;2022-09-09T12:52:32;5.53;;;1.20;;
39266;SDS011;24967;51.154;13.812;2022-09-09T12:55:03;1.15;;;1.02;;
39266;SDS011;24967;51.154;13.812;2022-09-09T12:57:34;1.27;;;0.88;;
39266;SDS011;24967;51.154;13.812;2022-09-09T13:00:07;1.85;;;1.13;;
39266;SDS011;24967;51.154;13.812;2022-09-09T13:02:44;2.13;;;1.27;;
39266;SDS011;24967;51.154;13.812;2022-09-09T13:05:15;1.48;;;0.98;;
39266;SDS011;24967;51.154;13.812;2022-09-09T13:07:44;1.45;;;0.95;;
39266;SDS011;24967;51.154;13.812;2022-09-09T13:10:11;4.43;;;1.00;;
39266;SDS011;24967;51.154;13.812;2022-09-09T13:12:48;3.45;;;1.15;;
39266;SDS011;24967;51.154;13.812;2022-09-09T13:15:21;1.58;;;1.00;;
39266;SDS011;24967;51.154;13.812;2022-09-09T13:17:52;3.35;;;1.20;;
39266;SDS011;24967;51.154;13.812;2022-09-09T13:20:22;2.95;;;1.00;;
39266;SDS011;24967;51.154;13.812;2022-09-09T13:22:50;0.95;;;0.90;;
39266;SDS011;24967;51.154;13.812;2022-09-09T13:25:20;2.25;;;0.88;;
39266;SDS011;24967;51.154;13.812;2022-09-09T13:27:52;4.07;;;1.00;;
39266;SDS011;24967;51.154;13.812;2022-09-09T13:30:22;1.35;;;0.88;;
39266;SDS011;24967;51.154;13.812;2022-09-09T13:33:00;3.97;;;0.80;;
39266;SDS011;24967;51.154;13.812;2022-09-09T13:35:29;1.73;;;0.95;;
39266;SDS011;24967;51.154;13.812;2022-09-09T13:37:57;0.82;;;0.82;;
39266;SDS011;24967;51.154;13.812;2022-09-09T13:40:24;0.98;;;0.80;;
39266;SDS011;24967;51.154;13.812;2022-09-09T13:42:51;1.15;;;0.70;;
39266;SDS011;24967;51.154;13.812;2022-09-09T13:45:21;1.25;;;0.80;;
39266;SDS011;24967;51.154;13.812;2022-09-09T13:50:20;1.83;;;0.90;;
39266;SDS011;24967;51.154;13.812;2022-09-09T13:52:49;1.95;;;0.60;;
39266;SDS011;24967;51.154;13.812;2022-09-09T13:55:18;3.03;;;1.00;;
39266;SDS011;24967;51.154;13.812;2022-09-09T13:57:53;1.77;;;0.70;;
39266;SDS011;24967;51.154;13.812;2022-09-09T14:00:21;2.35;;;0.65;;
39266;SDS011;24967;51.154;13.812;2022-09-09T14:02:49;2.38;;;0.80;;
39266;SDS011;24967;51.154;13.812;2022-09-09T14:05:16;0.88;;;0.77;;
39266;SDS011;24967;51.154;13.812;2022-09-09T14:07:43;1.25;;;0.77;;
39266;SDS011;24967;51.154;13.812;2022-09-09T14:10:12;2.20;;;0.75;;
39266;SDS011;24967;51.154;13.812;2022-09-09T14:12:38;1.63;;;0.90;;
39266;SDS011;24967;51.154;13.812;2022-09-09T14:15:05;3.10;;;1.13;;
39266;SDS011;24967;51.154;13.812;2022-09-09T14:17:33;19.70;;;1.48;;
39266;SDS011;24967;51.154;13.812;2022-09-09T14:20:01;2.05;;;1.17;;
39266;SDS011;24967;51.154;13.812;2022-09-09T14:22:28;1.95;;;1.00;;
39266;SDS011;24967;51.154;13.812;2022-09-09T14:24:54;1.25;;;1.10;;
39266;SDS011;24967;51.154;13.812;2022-09-09T14:27:23;2.33;;;1.00;;
39266;SDS011;24967;51.154;13.812;2022-09-09T14:29:51;1.42;;;1.10;;
39266;SDS011;24967;51.154;13.812;2022-09-09T14:32:18;3.00;;;0.90;;
39266;SDS011;24967;51.154;13.812;2022-09-09T14:34:45;3.80;;;1.42;;
39266;SDS011;24967;51.154;13.812;2022-09-09T14:37:14;2.22;;;0.95;;
39266;SDS011;24967;51.154;13.812;2022-09-09T14:39:41;2.78;;;0.98;;
39266;SDS011;24967;51.154;13.812;2022-09-09T14:42:09;2.00;;;0.90;;
39266;SDS011;24967;51.154;13.812;2022-09-09T14:44:37;2.75;;;1.20;;
39266;SDS011;24967;51.154;13.812;2022-09-09T14:47:04;1.27;;;0.90;;
39266;SDS011;24967;51.154;13.812;2022-09-09T14:49:31;3.85;;;1.13;;
39266;SDS011;24967;51.154;13.812;2022-09-09T14:51:57;3.92;;;1.00;;
39266;SDS011;24967;51.154;13.812;2022-09-09T14:54:23;0.90;;;0.70;;
39266;SDS011;24967;51.154;13.812;2022-09-09T14:56:50;0.98;;;0.88;;
39266;SDS011;24967;51.154;13.812;2022-09-09T14:59:16;1.88;;;0.75;;
39266;SDS011;24967;51.154;13.812;2022-09-09T15:01:44;1.38;;;0.70;;
39266;SDS011;24967;51.154;13.812;2022-09-09T15:04:11;1.85;;;1.00;;
39266;SDS011;24967;51.154;13.812;2022-09-09T15:06:39;1.65;;;0.77;;